Terminal Aerodrome Forecast
Issued by NWS Northern Indiana

Home | Current Version | Previous Version | Text Only | Print | Product List | Glossary Off
Versions: 1 2 3 4 5 6 7 8 9 10 11 12 13 14 15 16 17 18 19

960
FTUS43 KIWX 261000 AAB
TAFFWA
TAF AMD
KFWA 261000Z 2610/2706 00000KT 1/2SM FG BKN002 BKN250
     FM261100 VRB03KT 3SM BR FEW003 BKN100
      TEMPO 2611/2612 1/2SM FG BKN003
     FM261300 VRB03KT P6SM SCT060 BKN150=

USA.gov is the U.S. government's official web portal to all federal, state and local government web resources and services.